sensor_id;sensor_type;location;lat;lon;timestamp;temperature;humidity
56725;DHT22;42608;52.776;6.968;2023-05-14T00:01:33;12.00;99.90
56725;DHT22;42608;52.776;6.968;2023-05-14T00:03:58;12.00;99.90
56725;DHT22;42608;52.776;6.968;2023-05-14T00:06:24;12.00;99.90
56725;DHT22;42608;52.776;6.968;2023-05-14T00:08:50;11.90;99.90
56725;DHT22;42608;52.776;6.968;2023-05-14T00:11:15;11.90;99.90
56725;DHT22;42608;52.776;6.968;2023-05-14T00:13:41;11.90;99.90
56725;DHT22;42608;52.776;6.968;2023-05-14T00:16:06;11.80;99.90
56725;DHT22;42608;52.776;6.968;2023-05-14T00:18:32;11.80;99.90
56725;DHT22;42608;52.776;6.968;2023-05-14T00:20:57;11.80;99.90
56725;DHT22;42608;52.776;6.968;2023-05-14T00:23:23;11.80;99.90
56725;DHT22;42608;52.776;6.968;2023-05-14T00:25:48;11.80;99.90
56725;DHT22;42608;52.776;6.968;2023-05-14T00:28:14;11.80;99.90
56725;DHT22;42608;52.776;6.968;2023-05-14T00:30:40;11.80;99.90
56725;DHT22;42608;52.776;6.968;2023-05-14T00:33:05;11.70;99.90
56725;DHT22;42608;52.776;6.968;2023-05-14T00:35:31;11.70;99.90
56725;DHT22;42608;52.776;6.968;2023-05-14T00:37:59;11.60;99.90
56725;DHT22;42608;52.776;6.968;2023-05-14T00:40:26;11.60;99.90
56725;DHT22;42608;52.776;6.968;2023-05-14T00:42:52;11.60;99.90
56725;DHT22;42608;52.776;6.968;2023-05-14T00:45:17;11.60;99.90
56725;DHT22;42608;52.776;6.968;2023-05-14T00:47:43;11.60;99.90
56725;DHT22;42608;52.776;6.968;2023-05-14T00:50:09;11.60;99.90
56725;DHT22;42608;52.776;6.968;2023-05-14T00:52:36;11.60;99.90
56725;DHT22;42608;52.776;6.968;2023-05-14T00:55:03;11.60;99.90
56725;DHT22;42608;52.776;6.968;2023-05-14T00:57:28;11.60;99.90
56725;DHT22;42608;52.776;6.968;2023-05-14T00:59:54;11.50;99.90
56725;DHT22;42608;52.776;6.968;2023-05-14T01:02:20;11.50;99.90
56725;DHT22;42608;52.776;6.968;2023-05-14T01:04:45;11.50;99.90
56725;DHT22;42608;52.776;6.968;2023-05-14T01:07:15;11.40;99.90
56725;DHT22;42608;52.776;6.968;2023-05-14T01:17:05;11.40;99.90
56725;DHT22;42608;52.776;6.968;2023-05-14T01:22:02;11.40;99.90
56725;DHT22;42608;52.776;6.968;2023-05-14T01:24:27;11.30;99.90
56725;DHT22;42608;52.776;6.968;2023-05-14T01:26:54;11.40;99.90
56725;DHT22;42608;52.776;6.968;2023-05-14T01:29:22;11.40;99.90
56725;DHT22;42608;52.776;6.968;2023-05-14T01:31:51;11.30;99.90
56725;DHT22;42608;52.776;6.968;2023-05-14T01:34:19;11.30;99.90
56725;DHT22;42608;52.776;6.968;2023-05-14T01:36:45;11.40;99.90
56725;DHT22;42608;52.776;6.968;2023-05-14T01:39:11;11.30;99.90
56725;DHT22;42608;52.776;6.968;2023-05-14T01:41:37;11.30;99.90
56725;DHT22;42608;52.776;6.968;2023-05-14T01:44:07;11.30;99.90
56725;DHT22;42608;52.776;6.968;2023-05-14T01:46:33;11.30;99.90
56725;DHT22;42608;52.776;6.968;2023-05-14T01:48:59;11.30;99.90
56725;DHT22;42608;52.776;6.968;2023-05-14T01:51:24;11.30;99.90
56725;DHT22;42608;52.776;6.968;2023-05-14T01:53:50;11.30;99.90
56725;DHT22;42608;52.776;6.968;2023-05-14T01:56:16;11.30;99.90
56725;DHT22;42608;52.776;6.968;2023-05-14T01:58:42;11.30;99.90
56725;DHT22;42608;52.776;6.968;2023-05-14T02:01:07;11.30;99.90
56725;DHT22;42608;52.776;6.968;2023-05-14T02:03:33;11.20;99.90
56725;DHT22;42608;52.776;6.968;2023-05-14T02:05:58;11.20;99.90
56725;DHT22;42608;52.776;6.968;2023-05-14T02:08:24;11.20;99.90
56725;DHT22;42608;52.776;6.968;2023-05-14T02:10:50;11.20;99.90
56725;DHT22;42608;52.776;6.968;2023-05-14T02:13:15;11.10;99.90
56725;DHT22;42608;52.776;6.968;2023-05-14T02:15:41;11.10;99.90
56725;DHT22;42608;52.776;6.968;2023-05-14T02:18:06;11.10;99.90
56725;DHT22;42608;52.776;6.968;2023-05-14T02:20:32;11.10;99.90
56725;DHT22;42608;52.776;6.968;2023-05-14T02:22:58;11.10;99.90
56725;DHT22;42608;52.776;6.968;2023-05-14T02:25:23;11.00;99.90
56725;DHT22;42608;52.776;6.968;2023-05-14T02:27:49;11.10;99.90
56725;DHT22;42608;52.776;6.968;2023-05-14T02:30:15;11.10;99.90
56725;DHT22;42608;52.776;6.968;2023-05-14T02:32:40;11.00;99.90
56725;DHT22;42608;52.776;6.968;2023-05-14T02:35:06;11.10;99.90
56725;DHT22;42608;52.776;6.968;2023-05-14T02:37:31;11.00;99.90
56725;DHT22;42608;52.776;6.968;2023-05-14T02:39:59;11.00;99.90
56725;DHT22;42608;52.776;6.968;2023-05-14T02:42:24;11.00;99.90
56725;DHT22;42608;52.776;6.968;2023-05-14T02:44:50;10.90;99.90
56725;DHT22;42608;52.776;6.968;2023-05-14T02:47:16;10.90;99.90
56725;DHT22;42608;52.776;6.968;2023-05-14T02:49:42;10.90;99.90
56725;DHT22;42608;52.776;6.968;2023-05-14T02:52:07;10.90;99.90
56725;DHT22;42608;52.776;6.968;2023-05-14T02:54:33;10.90;99.90
56725;DHT22;42608;52.776;6.968;2023-05-14T02:56:58;10.90;99.90
56725;DHT22;42608;52.776;6.968;2023-05-14T02:59:24;10.90;99.90
56725;DHT22;42608;52.776;6.968;2023-05-14T03:01:50;10.90;99.90
56725;DHT22;42608;52.776;6.968;2023-05-14T03:04:16;10.90;99.90
56725;DHT22;42608;52.776;6.968;2023-05-14T03:06:41;10.80;99.90
56725;DHT22;42608;52.776;6.968;2023-05-14T03:09:07;10.80;99.90
56725;DHT22;42608;52.776;6.968;2023-05-14T03:11:32;10.80;99.90
56725;DHT22;42608;52.776;6.968;2023-05-14T03:13:58;10.90;99.90
56725;DHT22;42608;52.776;6.968;2023-05-14T03:16:23;10.90;99.90
56725;DHT22;42608;52.776;6.968;2023-05-14T03:18:49;11.00;99.90
56725;DHT22;42608;52.776;6.968;2023-05-14T03:21:15;11.00;99.90
56725;DHT22;42608;52.776;6.968;2023-05-14T03:23:40;10.90;99.90
56725;DHT22;42608;52.776;6.968;2023-05-14T03:26:06;11.00;99.90
56725;DHT22;42608;52.776;6.968;2023-05-14T03:28:31;11.00;99.90
56725;DHT22;42608;52.776;6.968;2023-05-14T03:30:57;11.00;99.90
56725;DHT22;42608;52.776;6.968;2023-05-14T03:33:22;11.00;99.90
56725;DHT22;42608;52.776;6.968;2023-05-14T03:35:48;11.00;99.90
56725;DHT22;42608;52.776;6.968;2023-05-14T03:38:14;11.00;99.90
56725;DHT22;42608;52.776;6.968;2023-05-14T03:40:39;11.00;99.90
56725;DHT22;42608;52.776;6.968;2023-05-14T03:43:05;11.00;99.90
56725;DHT22;42608;52.776;6.968;2023-05-14T03:45:30;11.00;99.90
56725;DHT22;42608;52.776;6.968;2023-05-14T03:47:56;11.00;99.90
56725;DHT22;42608;52.776;6.968;2023-05-14T03:50:25;10.90;99.90
56725;DHT22;42608;52.776;6.968;2023-05-14T03:52:51;10.90;99.90
56725;DHT22;42608;52.776;6.968;2023-05-14T03:55:19;10.90;99.90
56725;DHT22;42608;52.776;6.968;2023-05-14T03:57:46;10.80;99.90
56725;DHT22;42608;52.776;6.968;2023-05-14T04:00:12;10.70;99.90
56725;DHT22;42608;52.776;6.968;2023-05-14T04:02:38;10.70;99.90
56725;DHT22;42608;52.776;6.968;2023-05-14T04:05:03;10.70;99.90
56725;DHT22;42608;52.776;6.968;2023-05-14T04:07:29;10.70;99.90
56725;DHT22;42608;52.776;6.968;2023-05-14T04:09:55;10.70;99.90
56725;DHT22;42608;52.776;6.968;2023-05-14T04:12:20;10.70;99.90
56725;DHT22;42608;52.776;6.968;2023-05-14T04:14:46;10.70;99.90
56725;DHT22;42608;52.776;6.968;2023-05-14T04:17:11;10.70;99.90
56725;DHT22;42608;52.776;6.968;2023-05-14T04:19:37;10.60;99.90
56725;DHT22;42608;52.776;6.968;2023-05-14T04:22:03;10.70;99.90
56725;DHT22;42608;52.776;6.968;2023-05-14T04:24:29;10.70;99.90
56725;DHT22;42608;52.776;6.968;2023-05-14T04:26:55;10.70;99.90
56725;DHT22;42608;52.776;6.968;2023-05-14T04:29:20;10.70;99.90
56725;DHT22;42608;52.776;6.968;2023-05-14T04:31:46;10.70;99.90
56725;DHT22;42608;52.776;6.968;2023-05-14T04:34:11;10.70;99.90
56725;DHT22;42608;52.776;6.968;2023-05-14T04:36:37;10.70;99.90
56725;DHT22;42608;52.776;6.968;2023-05-14T04:39:02;10.70;99.90
56725;DHT22;42608;52.776;6.968;2023-05-14T04:41:28;10.70;99.90
56725;DHT22;42608;52.776;6.968;2023-05-14T04:43:57;10.70;99.90
56725;DHT22;42608;52.776;6.968;2023-05-14T04:46:23;10.80;99.90
56725;DHT22;42608;52.776;6.968;2023-05-14T04:48:48;10.80;99.90
56725;DHT22;42608;52.776;6.968;2023-05-14T04:51:15;10.80;99.90
56725;DHT22;42608;52.776;6.968;2023-05-14T04:53:41;10.80;99.90
56725;DHT22;42608;52.776;6.968;2023-05-14T04:56:06;10.80;99.90
56725;DHT22;42608;52.776;6.968;2023-05-14T04:58:32;10.80;99.90
56725;DHT22;42608;52.776;6.968;2023-05-14T05:00:58;10.80;99.90
56725;DHT22;42608;52.776;6.968;2023-05-14T05:03:23;10.90;99.90
56725;DHT22;42608;52.776;6.968;2023-05-14T05:05:49;10.90;99.90
56725;DHT22;42608;52.776;6.968;2023-05-14T05:08:15;10.90;99.90
56725;DHT22;42608;52.776;6.968;2023-05-14T05:10:40;10.90;99.90
56725;DHT22;42608;52.776;6.968;2023-05-14T05:13:06;11.00;99.90
56725;DHT22;42608;52.776;6.968;2023-05-14T05:15:31;11.00;99.90
56725;DHT22;42608;52.776;6.968;2023-05-14T05:17:57;11.00;99.90
56725;DHT22;42608;52.776;6.968;2023-05-14T05:20:22;11.10;99.90
56725;DHT22;42608;52.776;6.968;2023-05-14T05:22:49;11.00;99.90
56725;DHT22;42608;52.776;6.968;2023-05-14T05:25:14;11.10;99.90
56725;DHT22;42608;52.776;6.968;2023-05-14T05:27:40;11.10;99.90
56725;DHT22;42608;52.776;6.968;2023-05-14T05:30:06;11.10;99.90
56725;DHT22;42608;52.776;6.968;2023-05-14T05:32:31;11.10;99.90
56725;DHT22;42608;52.776;6.968;2023-05-14T05:34:57;11.10;99.90
56725;DHT22;42608;52.776;6.968;2023-05-14T05:37:23;11.20;99.90
56725;DHT22;42608;52.776;6.968;2023-05-14T05:39:48;11.20;99.90
56725;DHT22;42608;52.776;6.968;2023-05-14T05:42:14;11.20;99.90
56725;DHT22;42608;52.776;6.968;2023-05-14T05:44:39;11.20;99.90
56725;DHT22;42608;52.776;6.968;2023-05-14T05:47:05;11.30;99.90
56725;DHT22;42608;52.776;6.968;2023-05-14T05:49:30;11.30;99.90
56725;DHT22;42608;52.776;6.968;2023-05-14T05:51:56;11.30;99.90
56725;DHT22;42608;52.776;6.968;2023-05-14T05:54:22;11.40;99.90
56725;DHT22;42608;52.776;6.968;2023-05-14T05:56:48;11.40;99.90
56725;DHT22;42608;52.776;6.968;2023-05-14T05:59:14;11.40;99.90
56725;DHT22;42608;52.776;6.968;2023-05-14T06:01:40;11.50;99.90
56725;DHT22;42608;52.776;6.968;2023-05-14T06:04:08;11.50;99.90
56725;DHT22;42608;52.776;6.968;2023-05-14T06:06:33;11.60;99.90
56725;DHT22;42608;52.776;6.968;2023-05-14T06:08:59;11.60;99.90
56725;DHT22;42608;52.776;6.968;2023-05-14T06:11:26;11.60;99.90
56725;DHT22;42608;52.776;6.968;2023-05-14T06:13:51;11.60;99.90
56725;DHT22;42608;52.776;6.968;2023-05-14T06:16:17;11.60;99.90
56725;DHT22;42608;52.776;6.968;2023-05-14T06:18:43;11.60;99.90
56725;DHT22;42608;52.776;6.968;2023-05-14T06:21:08;11.70;99.90
56725;DHT22;42608;52.776;6.968;2023-05-14T06:23:34;11.70;99.90
56725;DHT22;42608;52.776;6.968;2023-05-14T06:25:59;11.70;99.90
56725;DHT22;42608;52.776;6.968;2023-05-14T06:28:25;11.70;99.90
56725;DHT22;42608;52.776;6.968;2023-05-14T06:30:51;11.80;99.90
56725;DHT22;42608;52.776;6.968;2023-05-14T06:33:18;11.80;99.90
56725;DHT22;42608;52.776;6.968;2023-05-14T06:35:45;11.80;99.90
56725;DHT22;42608;52.776;6.968;2023-05-14T06:38:11;11.90;99.90
56725;DHT22;42608;52.776;6.968;2023-05-14T06:40:36;12.00;99.90
56725;DHT22;42608;52.776;6.968;2023-05-14T06:43:02;12.00;99.90
56725;DHT22;42608;52.776;6.968;2023-05-14T06:45:28;12.00;99.90
56725;DHT22;42608;52.776;6.968;2023-05-14T06:47:54;12.10;99.90
56725;DHT22;42608;52.776;6.968;2023-05-14T06:50:19;12.10;99.90
56725;DHT22;42608;52.776;6.968;2023-05-14T06:52:45;12.20;99.90
56725;DHT22;42608;52.776;6.968;2023-05-14T06:55:11;12.20;99.90
56725;DHT22;42608;52.776;6.968;2023-05-14T06:57:36;12.20;99.90
56725;DHT22;42608;52.776;6.968;2023-05-14T07:00:02;12.30;99.90
56725;DHT22;42608;52.776;6.968;2023-05-14T07:02:27;12.30;99.90
56725;DHT22;42608;52.776;6.968;2023-05-14T07:04:53;12.40;99.90
56725;DHT22;42608;52.776;6.968;2023-05-14T07:07:18;12.40;99.90
56725;DHT22;42608;52.776;6.968;2023-05-14T07:09:45;12.50;99.90
56725;DHT22;42608;52.776;6.968;2023-05-14T07:12:11;12.60;99.90
56725;DHT22;42608;52.776;6.968;2023-05-14T07:14:37;12.60;99.90
56725;DHT22;42608;52.776;6.968;2023-05-14T07:17:02;12.70;99.90
56725;DHT22;42608;52.776;6.968;2023-05-14T07:19:28;12.80;99.90
56725;DHT22;42608;52.776;6.968;2023-05-14T07:21:55;13.00;99.90
56725;DHT22;42608;52.776;6.968;2023-05-14T07:24:20;13.10;99.90
56725;DHT22;42608;52.776;6.968;2023-05-14T07:26:46;13.20;99.90
56725;DHT22;42608;52.776;6.968;2023-05-14T07:29:11;13.30;99.90
56725;DHT22;42608;52.776;6.968;2023-05-14T07:31:37;13.40;99.90
56725;DHT22;42608;52.776;6.968;2023-05-14T07:34:03;13.50;99.90
56725;DHT22;42608;52.776;6.968;2023-05-14T07:36:28;13.50;99.90
56725;DHT22;42608;52.776;6.968;2023-05-14T07:38:54;13.60;99.90
56725;DHT22;42608;52.776;6.968;2023-05-14T07:41:19;13.70;99.90
56725;DHT22;42608;52.776;6.968;2023-05-14T07:43:45;13.70;99.90
56725;DHT22;42608;52.776;6.968;2023-05-14T07:46:11;13.80;99.90
56725;DHT22;42608;52.776;6.968;2023-05-14T07:48:36;13.90;99.90
56725;DHT22;42608;52.776;6.968;2023-05-14T07:51:02;14.00;99.90
56725;DHT22;42608;52.776;6.968;2023-05-14T07:53:28;14.10;99.90
56725;DHT22;42608;52.776;6.968;2023-05-14T07:55:54;14.30;99.90
56725;DHT22;42608;52.776;6.968;2023-05-14T07:58:19;14.40;99.90
56725;DHT22;42608;52.776;6.968;2023-05-14T08:00:45;14.50;99.90
56725;DHT22;42608;52.776;6.968;2023-05-14T08:03:10;14.60;99.90
56725;DHT22;42608;52.776;6.968;2023-05-14T08:05:36;14.60;99.90
56725;DHT22;42608;52.776;6.968;2023-05-14T08:08:02;14.70;99.90
56725;DHT22;42608;52.776;6.968;2023-05-14T08:10:27;14.80;99.90
56725;DHT22;42608;52.776;6.968;2023-05-14T08:12:53;14.90;99.90
56725;DHT22;42608;52.776;6.968;2023-05-14T08:15:18;14.90;99.90
56725;DHT22;42608;52.776;6.968;2023-05-14T08:17:44;15.00;99.90
56725;DHT22;42608;52.776;6.968;2023-05-14T08:20:09;15.00;99.90
56725;DHT22;42608;52.776;6.968;2023-05-14T08:22:36;15.10;99.90
56725;DHT22;42608;52.776;6.968;2023-05-14T08:25:02;15.20;99.90
56725;DHT22;42608;52.776;6.968;2023-05-14T08:27:28;15.20;99.90
56725;DHT22;42608;52.776;6.968;2023-05-14T08:29:53;15.20;99.90
56725;DHT22;42608;52.776;6.968;2023-05-14T08:32:19;15.20;99.90
56725;DHT22;42608;52.776;6.968;2023-05-14T08:34:45;15.20;99.90
56725;DHT22;42608;52.776;6.968;2023-05-14T08:37:10;15.30;99.90
56725;DHT22;42608;52.776;6.968;2023-05-14T08:39:36;15.40;99.90
56725;DHT22;42608;52.776;6.968;2023-05-14T08:42:01;15.40;99.90
56725;DHT22;42608;52.776;6.968;2023-05-14T08:44:32;15.50;99.90
56725;DHT22;42608;52.776;6.968;2023-05-14T08:47:00;15.50;99.90
56725;DHT22;42608;52.776;6.968;2023-05-14T08:49:36;15.60;99.90
56725;DHT22;42608;52.776;6.968;2023-05-14T08:52:05;15.60;99.90
56725;DHT22;42608;52.776;6.968;2023-05-14T08:54:31;15.60;99.90
56725;DHT22;42608;52.776;6.968;2023-05-14T08:56:56;15.60;99.90
56725;DHT22;42608;52.776;6.968;2023-05-14T08:59:23;15.70;99.90
56725;DHT22;42608;52.776;6.968;2023-05-14T09:01:50;15.70;99.90
56725;DHT22;42608;52.776;6.968;2023-05-14T09:04:18;15.70;99.90
56725;DHT22;42608;52.776;6.968;2023-05-14T09:06:45;15.80;99.90
56725;DHT22;42608;52.776;6.968;2023-05-14T09:09:12;15.90;99.90
56725;DHT22;42608;52.776;6.968;2023-05-14T09:11:42;16.00;99.90
56725;DHT22;42608;52.776;6.968;2023-05-14T09:14:10;16.00;99.90
56725;DHT22;42608;52.776;6.968;2023-05-14T09:16:35;16.10;99.90
56725;DHT22;42608;52.776;6.968;2023-05-14T09:19:02;16.20;99.90
56725;DHT22;42608;52.776;6.968;2023-05-14T09:21:27;16.20;99.90
56725;DHT22;42608;52.776;6.968;2023-05-14T09:23:53;16.20;99.90
56725;DHT22;42608;52.776;6.968;2023-05-14T09:26:24;16.30;99.90
56725;DHT22;42608;52.776;6.968;2023-05-14T09:28:53;16.40;99.90
56725;DHT22;42608;52.776;6.968;2023-05-14T09:31:20;16.40;99.90
56725;DHT22;42608;52.776;6.968;2023-05-14T09:33:49;16.60;99.90
56725;DHT22;42608;52.776;6.968;2023-05-14T09:36:15;16.70;99.90
56725;DHT22;42608;52.776;6.968;2023-05-14T09:38:41;16.80;99.90
56725;DHT22;42608;52.776;6.968;2023-05-14T09:41:06;16.90;99.90
56725;DHT22;42608;52.776;6.968;2023-05-14T09:43:32;17.00;99.90
56725;DHT22;42608;52.776;6.968;2023-05-14T09:45:57;17.00;99.90
56725;DHT22;42608;52.776;6.968;2023-05-14T09:48:23;17.10;99.90
56725;DHT22;42608;52.776;6.968;2023-05-14T09:50:49;17.20;99.90
56725;DHT22;42608;52.776;6.968;2023-05-14T09:53:16;17.20;99.90
56725;DHT22;42608;52.776;6.968;2023-05-14T09:55:42;17.20;99.90
56725;DHT22;42608;52.776;6.968;2023-05-14T09:58:07;17.30;99.90
56725;DHT22;42608;52.776;6.968;2023-05-14T10:00:33;17.30;99.90
56725;DHT22;42608;52.776;6.968;2023-05-14T10:03:01;17.30;99.90
56725;DHT22;42608;52.776;6.968;2023-05-14T10:05:31;17.40;99.90
56725;DHT22;42608;52.776;6.968;2023-05-14T10:07:57;17.50;99.90
56725;DHT22;42608;52.776;6.968;2023-05-14T10:10:25;17.50;99.90
56725;DHT22;42608;52.776;6.968;2023-05-14T10:12:57;17.60;99.90
56725;DHT22;42608;52.776;6.968;2023-05-14T10:15:39;17.60;99.90
56725;DHT22;42608;52.776;6.968;2023-05-14T10:18:09;17.70;99.90
56725;DHT22;42608;52.776;6.968;2023-05-14T10:20:37;17.70;99.90
56725;DHT22;42608;52.776;6.968;2023-05-14T10:23:03;17.80;99.90
56725;DHT22;42608;52.776;6.968;2023-05-14T10:25:29;17.80;99.90
56725;DHT22;42608;52.776;6.968;2023-05-14T10:27:54;17.80;99.90
56725;DHT22;42608;52.776;6.968;2023-05-14T10:30:21;17.90;99.90
56725;DHT22;42608;52.776;6.968;2023-05-14T10:33:03;18.00;99.90
56725;DHT22;42608;52.776;6.968;2023-05-14T10:35:29;18.00;99.90
56725;DHT22;42608;52.776;6.968;2023-05-14T10:37:55;18.10;99.90
56725;DHT22;42608;52.776;6.968;2023-05-14T10:40:22;18.20;99.90
56725;DHT22;42608;52.776;6.968;2023-05-14T10:42:47;18.30;99.90
56725;DHT22;42608;52.776;6.968;2023-05-14T10:45:13;18.30;99.90
56725;DHT22;42608;52.776;6.968;2023-05-14T10:47:45;18.40;99.90
56725;DHT22;42608;52.776;6.968;2023-05-14T10:50:12;18.50;99.90
56725;DHT22;42608;52.776;6.968;2023-05-14T10:52:42;18.40;99.90
56725;DHT22;42608;52.776;6.968;2023-05-14T10:55:08;18.60;99.90
56725;DHT22;42608;52.776;6.968;2023-05-14T10:57:37;18.60;99.90
56725;DHT22;42608;52.776;6.968;2023-05-14T11:00:03;18.70;99.90
56725;DHT22;42608;52.776;6.968;2023-05-14T11:02:35;18.70;99.90
56725;DHT22;42608;52.776;6.968;2023-05-14T11:05:02;18.80;99.90
56725;DHT22;42608;52.776;6.968;2023-05-14T11:07:29;18.90;99.90
56725;DHT22;42608;52.776;6.968;2023-05-14T11:09:59;18.90;99.90
56725;DHT22;42608;52.776;6.968;2023-05-14T11:12:25;19.00;99.90
56725;DHT22;42608;52.776;6.968;2023-05-14T11:14:51;19.10;99.90
56725;DHT22;42608;52.776;6.968;2023-05-14T11:17:17;19.20;99.90
56725;DHT22;42608;52.776;6.968;2023-05-14T11:19:43;19.30;99.90
56725;DHT22;42608;52.776;6.968;2023-05-14T11:22:09;19.40;99.90
56725;DHT22;42608;52.776;6.968;2023-05-14T11:24:38;19.50;99.90
56725;DHT22;42608;52.776;6.968;2023-05-14T11:27:03;19.50;99.90
56725;DHT22;42608;52.776;6.968;2023-05-14T11:29:29;19.60;99.90
56725;DHT22;42608;52.776;6.968;2023-05-14T11:31:55;19.60;99.90
56725;DHT22;42608;52.776;6.968;2023-05-14T11:34:20;19.60;99.90
56725;DHT22;42608;52.776;6.968;2023-05-14T11:36:46;19.60;99.90
56725;DHT22;42608;52.776;6.968;2023-05-14T11:39:16;19.60;99.90
56725;DHT22;42608;52.776;6.968;2023-05-14T11:41:45;19.70;99.90
56725;DHT22;42608;52.776;6.968;2023-05-14T11:44:10;19.80;99.90
56725;DHT22;42608;52.776;6.968;2023-05-14T11:46:36;19.80;99.90
56725;DHT22;42608;52.776;6.968;2023-05-14T11:49:04;19.90;99.90
56725;DHT22;42608;52.776;6.968;2023-05-14T11:51:31;19.90;99.90
56725;DHT22;42608;52.776;6.968;2023-05-14T11:53:57;19.90;99.90
56725;DHT22;42608;52.776;6.968;2023-05-14T11:56:25;20.00;99.90
56725;DHT22;42608;52.776;6.968;2023-05-14T11:58:54;20.10;99.70
56725;DHT22;42608;52.776;6.968;2023-05-14T12:01:21;20.10;99.90
56725;DHT22;42608;52.776;6.968;2023-05-14T12:03:46;20.10;99.90
56725;DHT22;42608;52.776;6.968;2023-05-14T12:06:12;20.10;99.90
56725;DHT22;42608;52.776;6.968;2023-05-14T12:08:37;20.10;99.90
56725;DHT22;42608;52.776;6.968;2023-05-14T12:11:03;20.20;99.20
56725;DHT22;42608;52.776;6.968;2023-05-14T12:13:29;20.30;97.80
56725;DHT22;42608;52.776;6.968;2023-05-14T12:15:55;20.20;95.70
56725;DHT22;42608;52.776;6.968;2023-05-14T12:18:23;20.20;94.10
56725;DHT22;42608;52.776;6.968;2023-05-14T12:20:49;20.30;95.10
56725;DHT22;42608;52.776;6.968;2023-05-14T12:23:16;20.30;95.80
56725;DHT22;42608;52.776;6.968;2023-05-14T12:25:51;20.40;97.20
56725;DHT22;42608;52.776;6.968;2023-05-14T12:28:17;20.50;96.10
56725;DHT22;42608;52.776;6.968;2023-05-14T12:30:44;20.50;95.10
56725;DHT22;42608;52.776;6.968;2023-05-14T12:33:09;20.60;93.40
56725;DHT22;42608;52.776;6.968;2023-05-14T12:35:35;20.60;94.90
56725;DHT22;42608;52.776;6.968;2023-05-14T12:38:01;20.60;94.80
56725;DHT22;42608;52.776;6.968;2023-05-14T12:40:27;20.70;92.80
56725;DHT22;42608;52.776;6.968;2023-05-14T12:42:53;20.70;90.70
56725;DHT22;42608;52.776;6.968;2023-05-14T12:45:18;20.70;90.00
56725;DHT22;42608;52.776;6.968;2023-05-14T12:47:44;20.70;88.10
56725;DHT22;42608;52.776;6.968;2023-05-14T12:50:10;20.80;90.10
56725;DHT22;42608;52.776;6.968;2023-05-14T12:52:35;20.90;86.30
56725;DHT22;42608;52.776;6.968;2023-05-14T12:55:01;21.00;85.70
56725;DHT22;42608;52.776;6.968;2023-05-14T12:57:26;21.00;85.40
56725;DHT22;42608;52.776;6.968;2023-05-14T12:59:52;21.10;85.40
56725;DHT22;42608;52.776;6.968;2023-05-14T13:02:19;21.10;85.00
56725;DHT22;42608;52.776;6.968;2023-05-14T13:04:46;21.10;80.80
56725;DHT22;42608;52.776;6.968;2023-05-14T13:07:11;21.10;79.60
56725;DHT22;42608;52.776;6.968;2023-05-14T13:09:37;21.10;79.30
56725;DHT22;42608;52.776;6.968;2023-05-14T13:12:03;21.10;78.40
56725;DHT22;42608;52.776;6.968;2023-05-14T13:14:28;21.10;74.30
56725;DHT22;42608;52.776;6.968;2023-05-14T13:16:54;21.10;78.00
56725;DHT22;42608;52.776;6.968;2023-05-14T13:19:20;21.20;81.30
56725;DHT22;42608;52.776;6.968;2023-05-14T13:21:45;21.30;81.60
56725;DHT22;42608;52.776;6.968;2023-05-14T13:24:11;21.30;78.10
56725;DHT22;42608;52.776;6.968;2023-05-14T13:26:36;21.30;80.10
56725;DHT22;42608;52.776;6.968;2023-05-14T13:29:02;21.40;80.00
56725;DHT22;42608;52.776;6.968;2023-05-14T13:31:28;21.40;77.30
56725;DHT22;42608;52.776;6.968;2023-05-14T13:33:53;21.40;74.90
56725;DHT22;42608;52.776;6.968;2023-05-14T13:36:19;21.50;75.80
56725;DHT22;42608;52.776;6.968;2023-05-14T13:38:44;21.50;76.50
56725;DHT22;42608;52.776;6.968;2023-05-14T13:41:10;21.50;75.30
56725;DHT22;42608;52.776;6.968;2023-05-14T13:43:36;21.60;74.60
56725;DHT22;42608;52.776;6.968;2023-05-14T13:46:02;21.50;70.30
56725;DHT22;42608;52.776;6.968;2023-05-14T13:48:28;21.50;73.10
56725;DHT22;42608;52.776;6.968;2023-05-14T13:50:55;21.50;73.70
56725;DHT22;42608;52.776;6.968;2023-05-14T13:53:21;21.40;74.90
56725;DHT22;42608;52.776;6.968;2023-05-14T13:55:47;21.50;74.70
56725;DHT22;42608;52.776;6.968;2023-05-14T13:58:13;21.50;74.10
56725;DHT22;42608;52.776;6.968;2023-05-14T14:00:38;21.50;73.90
56725;DHT22;42608;52.776;6.968;2023-05-14T14:03:04;21.50;74.10
56725;DHT22;42608;52.776;6.968;2023-05-14T14:05:29;21.50;79.40
56725;DHT22;42608;52.776;6.968;2023-05-14T14:07:56;21.50;76.80
56725;DHT22;42608;52.776;6.968;2023-05-14T14:10:21;21.50;78.50
56725;DHT22;42608;52.776;6.968;2023-05-14T14:12:47;21.50;80.80
56725;DHT22;42608;52.776;6.968;2023-05-14T14:15:13;21.50;78.40
56725;DHT22;42608;52.776;6.968;2023-05-14T14:17:39;21.50;78.90
56725;DHT22;42608;52.776;6.968;2023-05-14T14:20:09;21.50;80.10
56725;DHT22;42608;52.776;6.968;2023-05-14T14:22:34;21.50;78.40
56725;DHT22;42608;52.776;6.968;2023-05-14T14:25:00;21.50;75.10
56725;DHT22;42608;52.776;6.968;2023-05-14T14:27:26;21.50;77.40
56725;DHT22;42608;52.776;6.968;2023-05-14T14:29:52;21.40;76.60
56725;DHT22;42608;52.776;6.968;2023-05-14T14:32:17;21.50;77.60
56725;DHT22;42608;52.776;6.968;2023-05-14T14:34:43;21.50;78.50
56725;DHT22;42608;52.776;6.968;2023-05-14T14:37:08;21.50;77.40
56725;DHT22;42608;52.776;6.968;2023-05-14T14:39:34;21.50;75.00
56725;DHT22;42608;52.776;6.968;2023-05-14T14:41:59;21.50;73.90
56725;DHT22;42608;52.776;6.968;2023-05-14T14:44:25;21.50;73.40
56725;DHT22;42608;52.776;6.968;2023-05-14T14:46:51;21.50;73.00
56725;DHT22;42608;52.776;6.968;2023-05-14T14:49:16;21.40;70.90
56725;DHT22;42608;52.776;6.968;2023-05-14T14:51:42;21.40;70.90
56725;DHT22;42608;52.776;6.968;2023-05-14T14:54:07;21.40;72.60
56725;DHT22;42608;52.776;6.968;2023-05-14T14:56:33;21.40;74.30
56725;DHT22;42608;52.776;6.968;2023-05-14T14:58:59;21.40;74.50
56725;DHT22;42608;52.776;6.968;2023-05-14T15:01:25;21.40;75.20
56725;DHT22;42608;52.776;6.968;2023-05-14T15:03:50;21.40;74.90
56725;DHT22;42608;52.776;6.968;2023-05-14T15:06:16;21.40;73.10
56725;DHT22;42608;52.776;6.968;2023-05-14T15:08:41;21.40;76.00
56725;DHT22;42608;52.776;6.968;2023-05-14T15:11:07;21.40;74.40
56725;DHT22;42608;52.776;6.968;2023-05-14T15:13:33;21.50;74.90
56725;DHT22;42608;52.776;6.968;2023-05-14T15:15:58;21.50;73.90
56725;DHT22;42608;52.776;6.968;2023-05-14T15:18:24;21.60;75.70
56725;DHT22;42608;52.776;6.968;2023-05-14T15:20:50;21.60;76.00
56725;DHT22;42608;52.776;6.968;2023-05-14T15:23:16;21.50;74.80
56725;DHT22;42608;52.776;6.968;2023-05-14T15:25:42;21.50;75.90
56725;DHT22;42608;52.776;6.968;2023-05-14T15:28:08;21.50;73.60
56725;DHT22;42608;52.776;6.968;2023-05-14T15:30:33;21.50;71.30
56725;DHT22;42608;52.776;6.968;2023-05-14T15:32:59;21.50;73.80